createdAt,value
2023-02-07T00:04:28.695Z,-9.30
2023-02-07T00:09:50.504Z,-9.50
2023-02-07T00:15:12.021Z,-9.50
2023-02-07T00:20:33.638Z,-9.60
2023-02-07T00:25:55.074Z,-9.60
2023-02-07T00:31:20.140Z,-9.80
2023-02-07T00:36:42.603Z,-9.90
2023-02-07T00:42:04.186Z,-10.00
2023-02-07T00:47:25.499Z,-10.00
2023-02-07T00:52:46.862Z,-10.10
2023-02-07T00:58:08.143Z,-10.10
2023-02-07T01:03:29.514Z,-10.20
2023-02-07T01:08:51.036Z,-10.30
2023-02-07T01:14:12.425Z,-10.30
2023-02-07T01:19:33.876Z,-10.40
2023-02-07T01:24:56.178Z,-10.50
2023-02-07T01:30:17.657Z,-10.60
2023-02-07T01:35:39.617Z,-10.60
2023-02-07T01:41:01.551Z,-10.70
2023-02-07T01:46:22.953Z,-10.70
2023-02-07T01:51:56.363Z,-10.80
2023-02-07T01:57:21.285Z,-10.80
2023-02-07T02:02:43.264Z,-10.80
2023-02-07T02:08:07.146Z,-10.70
2023-02-07T02:13:45.227Z,-10.40
2023-02-07T02:19:23.675Z,-10.30
2023-02-07T02:25:23.013Z,-10.30
2023-02-07T02:31:10.966Z,-10.30
2023-02-07T02:36:56.905Z,-10.30
2023-02-07T02:42:27.529Z,-10.40
2023-02-07T02:47:51.016Z,-10.40
2023-02-07T02:53:14.088Z,-10.40
2023-02-07T02:59:00.482Z,-10.50
2023-02-07T03:04:45.962Z,-10.60
2023-02-07T03:10:31.501Z,-10.60
2023-02-07T03:16:11.116Z,-10.70
2023-02-07T03:21:40.122Z,-10.80
2023-02-07T03:27:24.024Z,-10.90
2023-02-07T03:32:52.627Z,-10.90
2023-02-07T03:38:14.887Z,-10.90
2023-02-07T03:43:38.806Z,-11.00
2023-02-07T03:49:00.033Z,-11.00
2023-02-07T03:54:21.758Z,-11.10
2023-02-07T03:59:43.334Z,-11.20
2023-02-07T04:05:05.105Z,-11.20
2023-02-07T04:10:26.707Z,-11.20
2023-02-07T04:15:48.291Z,-11.30
2023-02-07T04:21:10.156Z,-11.30
2023-02-07T04:26:32.878Z,-11.40
2023-02-07T04:31:54.401Z,-11.40
2023-02-07T04:37:16.498Z,-11.50
2023-02-07T04:42:37.755Z,-11.50
2023-02-07T04:47:59.415Z,-11.60
2023-02-07T04:53:20.962Z,-11.70
2023-02-07T04:58:42.181Z,-11.70
2023-02-07T05:04:03.746Z,-11.80
2023-02-07T05:09:25.637Z,-11.90
2023-02-07T05:14:47.180Z,-11.90
2023-02-07T05:20:09.227Z,-12.00
2023-02-07T05:25:31.030Z,-12.00
2023-02-07T05:30:56.937Z,-12.00
2023-02-07T05:36:18.360Z,-12.10
2023-02-07T05:41:39.686Z,-12.10
2023-02-07T05:47:00.939Z,-12.20
2023-02-07T05:52:22.103Z,-12.20
2023-02-07T05:57:44.636Z,-12.20
2023-02-07T06:03:06.062Z,-12.20
2023-02-07T06:08:27.645Z,-12.30
2023-02-07T06:13:49.139Z,-12.30
2023-02-07T06:19:14.015Z,-12.30
2023-02-07T06:24:35.581Z,-12.30
2023-02-07T06:29:57.115Z,-12.20
2023-02-07T06:35:18.688Z,-12.20
2023-02-07T06:40:40.272Z,-12.20
2023-02-07T06:46:01.998Z,-12.20
2023-02-07T06:51:23.875Z,-12.10
2023-02-07T06:56:45.204Z,-12.10
2023-02-07T07:02:07.002Z,-11.90
2023-02-07T07:07:28.706Z,-11.90
2023-02-07T07:12:50.632Z,-11.80
2023-02-07T07:18:11.881Z,-11.60
2023-02-07T07:23:33.466Z,-11.50
2023-02-07T07:28:58.435Z,-11.50
2023-02-07T07:34:20.155Z,-11.40
2023-02-07T07:39:44.268Z,-11.30
2023-02-07T07:45:06.099Z,-11.20
2023-02-07T07:50:28.630Z,-11.20
2023-02-07T07:55:54.729Z,-11.00
2023-02-07T08:01:16.283Z,-10.80
2023-02-07T08:06:37.932Z,-10.50
2023-02-07T08:11:59.510Z,-10.10
2023-02-07T08:17:21.158Z,-9.50
2023-02-07T08:22:42.629Z,-9.00
2023-02-07T08:28:04.888Z,-8.50
2023-02-07T08:33:26.724Z,-8.10
2023-02-07T08:38:49.263Z,-7.70
2023-02-07T08:44:11.717Z,-7.30
2023-02-07T08:49:32.941Z,-6.80
2023-02-07T08:54:54.582Z,-6.20
2023-02-07T09:00:16.846Z,-5.90
2023-02-07T09:05:38.450Z,-5.50
2023-02-07T09:11:00.019Z,-5.30
2023-02-07T09:16:23.441Z,-5.00
2023-02-07T09:21:45.209Z,-4.90
2023-02-07T09:27:06.856Z,-4.90
2023-02-07T09:32:28.265Z,-4.60
2023-02-07T09:37:52.551Z,-4.40
2023-02-07T09:43:38.102Z,-4.20
2023-02-07T09:49:08.171Z,-3.80
2023-02-07T09:54:49.221Z,-3.50
2023-02-07T10:00:32.960Z,-3.30
2023-02-07T10:06:12.818Z,-3.10
2023-02-07T10:11:48.042Z,-3.00
2023-02-07T10:17:19.261Z,-2.70
2023-02-07T10:23:02.175Z,-2.40
2023-02-07T10:28:57.450Z,-2.10
2023-02-07T10:34:41.634Z,-1.70
2023-02-07T10:40:21.254Z,-1.60
2023-02-07T10:45:43.368Z,-1.40
2023-02-07T10:51:26.776Z,-1.10
2023-02-07T10:57:02.221Z,-0.80
2023-02-07T11:02:32.656Z,-0.30
2023-02-07T11:08:15.914Z,0.00
2023-02-07T11:13:49.611Z,0.50
2023-02-07T11:19:24.657Z,0.70
2023-02-07T11:24:48.198Z,0.80
2023-02-07T11:30:19.286Z,1.00
2023-02-07T11:35:43.440Z,1.10
2023-02-07T11:41:07.068Z,1.20
2023-02-07T11:46:36.268Z,1.30
2023-02-07T11:52:01.582Z,1.50
2023-02-07T11:57:24.969Z,0.90
2023-02-07T12:02:52.317Z,1.20
2023-02-07T12:08:18.398Z,1.50
2023-02-07T12:13:46.588Z,1.40
2023-02-07T12:19:28.289Z,1.70
2023-02-07T12:25:13.636Z,2.20
2023-02-07T12:30:58.643Z,2.00
2023-02-07T12:36:36.223Z,1.80
2023-02-07T12:42:20.836Z,1.80
2023-02-07T12:48:00.883Z,1.90
2023-02-07T12:53:31.122Z,1.70
2023-02-07T12:59:00.589Z,1.90
2023-02-07T13:04:50.204Z,1.90
2023-02-07T13:10:26.163Z,1.90
2023-02-07T13:16:02.432Z,1.60
2023-02-07T13:21:29.301Z,1.50
2023-02-07T13:27:07.701Z,1.50
2023-02-07T13:32:29.444Z,1.50
2023-02-07T13:38:02.908Z,1.30
2023-02-07T13:44:09.335Z,1.20
2023-02-07T13:49:50.369Z,1.10
2023-02-07T13:55:32.821Z,1.00
2023-02-07T14:01:15.518Z,1.10
2023-02-07T14:07:12.050Z,1.30
2023-02-07T14:12:40.958Z,1.70
2023-02-07T14:18:26.814Z,1.70
2023-02-07T14:24:10.133Z,1.60
2023-02-07T14:29:31.583Z,1.20
2023-02-07T14:35:17.201Z,1.00
2023-02-07T14:40:44.364Z,1.00
2023-02-07T14:46:11.410Z,0.80
2023-02-07T14:51:41.139Z,0.60
2023-02-07T14:57:17.276Z,0.50
2023-02-07T15:02:40.174Z,0.50
2023-02-07T15:08:21.619Z,0.20
2023-02-07T15:13:46.081Z,0.20
2023-02-07T15:19:26.009Z,-0.20
2023-02-07T15:24:51.818Z,-0.30
2023-02-07T15:30:20.318Z,-0.50
2023-02-07T15:35:41.963Z,-0.60
2023-02-07T15:41:04.751Z,-0.70
2023-02-07T15:46:42.829Z,-0.80
2023-02-07T15:52:14.463Z,-0.90
2023-02-07T15:57:43.098Z,-1.10
2023-02-07T16:03:08.364Z,-1.30
2023-02-07T16:08:33.481Z,-1.50
2023-02-07T16:14:10.886Z,-1.70
2023-02-07T16:19:33.478Z,-1.80
2023-02-07T16:24:54.927Z,-1.90
2023-02-07T16:30:20.915Z,-2.10
2023-02-07T16:35:42.679Z,-2.20
2023-02-07T16:41:06.059Z,-2.40
2023-02-07T16:46:27.609Z,-2.60
2023-02-07T16:51:49.055Z,-2.70
2023-02-07T16:57:11.821Z,-2.90
2023-02-07T17:02:33.405Z,-3.00
2023-02-07T17:07:54.781Z,-3.20
2023-02-07T17:13:16.466Z,-3.30
2023-02-07T17:18:38.068Z,-3.50
2023-02-07T17:23:59.682Z,-3.70
2023-02-07T17:29:21.315Z,-3.80
2023-02-07T17:34:42.968Z,-4.00
2023-02-07T17:40:14.002Z,-4.10
2023-02-07T17:45:37.194Z,-4.30
2023-02-07T17:50:58.725Z,-4.40
2023-02-07T17:56:24.494Z,-4.60
2023-02-07T18:01:45.791Z,-4.70
2023-02-07T18:07:07.253Z,-4.80
2023-02-07T18:12:28.785Z,-5.00
2023-02-07T18:17:51.840Z,-5.10
2023-02-07T18:23:13.612Z,-5.20
2023-02-07T18:28:35.143Z,-5.30
2023-02-07T18:33:56.576Z,-5.40
2023-02-07T18:39:18.281Z,-5.60
2023-02-07T18:44:40.959Z,-5.60
2023-02-07T18:50:02.461Z,-5.80
2023-02-07T18:55:24.007Z,-5.80
2023-02-07T19:00:45.498Z,-6.00
2023-02-07T19:06:08.437Z,-6.10
2023-02-07T19:11:32.739Z,-6.20
2023-02-07T19:16:56.011Z,-6.30
2023-02-07T19:22:26.676Z,-6.40
2023-02-07T19:27:51.487Z,-6.60
2023-02-07T19:33:12.972Z,-6.70
2023-02-07T19:38:34.889Z,-6.70
2023-02-07T19:43:56.367Z,-6.80
2023-02-07T19:49:17.894Z,-6.90
2023-02-07T19:54:39.070Z,-7.00
2023-02-07T20:00:00.587Z,-7.00
2023-02-07T20:05:22.124Z,-7.10
2023-02-07T20:10:45.105Z,-7.10
2023-02-07T20:16:13.260Z,-7.20
2023-02-07T20:21:37.078Z,-7.30
2023-02-07T20:26:58.393Z,-7.30
2023-02-07T20:32:20.037Z,-7.40
2023-02-07T20:37:41.432Z,-7.50
2023-02-07T20:43:02.913Z,-7.50
2023-02-07T20:48:24.383Z,-7.60
2023-02-07T20:53:45.984Z,-7.70
2023-02-07T20:59:08.103Z,-7.70
2023-02-07T21:04:30.177Z,-7.70
2023-02-07T21:09:51.776Z,-7.80
2023-02-07T21:15:13.282Z,-7.90
2023-02-07T21:20:37.537Z,-7.90
2023-02-07T21:26:08.024Z,-8.00
2023-02-07T21:31:31.191Z,-8.10
2023-02-07T21:36:57.714Z,-8.20
2023-02-07T21:42:18.861Z,-8.20
2023-02-07T21:47:40.381Z,-8.30
2023-02-07T21:53:01.879Z,-8.30
2023-02-07T21:58:23.489Z,-8.40
2023-02-07T22:03:47.240Z,-8.50
2023-02-07T22:09:09.625Z,-8.50
2023-02-07T22:14:32.366Z,-8.50
2023-02-07T22:19:53.924Z,-8.50
2023-02-07T22:25:15.455Z,-8.50
2023-02-07T22:30:43.323Z,-8.60
2023-02-07T22:36:05.474Z,-8.60
2023-02-07T22:41:27.147Z,-8.60
2023-02-07T22:46:48.381Z,-8.70
2023-02-07T22:52:09.891Z,-8.70
2023-02-07T22:57:31.494Z,-8.80
2023-02-07T23:02:52.650Z,-8.80
2023-02-07T23:08:13.945Z,-8.70
2023-02-07T23:13:35.340Z,-8.80
2023-02-07T23:19:02.471Z,-8.80
2023-02-07T23:24:24.052Z,-8.90
2023-02-07T23:29:45.476Z,-9.00
2023-02-07T23:35:07.420Z,-9.00
2023-02-07T23:40:29.493Z,-9.10
2023-02-07T23:45:51.143Z,-9.20
2023-02-07T23:51:13.931Z,-9.20
2023-02-07T23:56:35.421Z,-9.30
